Ominato Air Base, Japan

9:02 PM JST on August 22, 2014 (GMT +0900)
Aomori | Change Station
CLOSE
Current Station
Airport
Location: Aomori Airport,
Elevation: 659 ft
Nearby Weather Stations

Elev 659 ft 40.73 °N, 140.69 °E | Updated 19 minutes ago

Heavy Thunderstorms and Rain
Heavy Thunderstorm Rain Patches Fog Mist
70 °F
Feels Like 70 °F
N
6
Wind Variable Wind from SW

Today
High -- | Low -- °F
--% Chance of Precip.
Yesterday
High -- | Low -- °F
Precip. -- in
4:51 AM 6:25 PM
Waning Crescent, 8% visible
Pressure 29.89 in
Visibility 1.2 miles
Clouds Few 100 ft
Scattered Clouds 300 ft
Few 3000 ft
Mostly Cloudy 3500 ft
Dew Point 68 °F
Humidity 94%
Rainfall 0.00 in
Snow Depth Not available.
UV 0 out of 12
Pollen Not available.
Air Quality Not available.
Flu Activity Not available.
SPECI RJSA 221143Z 23005KT 200V260 2000 +TSRA BCFG BR FEW001 SCT003 FEW030CB BKN035 21/20 Q1012 RMK 1ST001 3ST003 2CB030 6CU035 A2989 MOD TS 5KM S MOV NE

More Conditions Fewer Conditions

Pressure 29.89 in
Visibility 1.2 miles
Clouds Few 100 ft
Scattered Clouds 300 ft
Few 3000 ft
Mostly Cloudy 3500 ft
Dew Point 68 °F
Humidity 94%
Rainfall 0.00 in
Snow Depth Not available.
UV 0 out of 12
Pollen Not available.
Air Quality Not available.
Flu Activity Not available.
SPECI RJSA 221143Z 23005KT 200V260 2000 +TSRA BCFG BR FEW001 SCT003 FEW030CB BKN035 21/20 Q1012 RMK 1ST001 3ST003 2CB030 6CU035 A2989 MOD TS 5KM S MOV NE

More Conditions Fewer Conditions

10-Day Weather Forecast

Almanac

Astronomy

Aug. 22, 2014 Rise Set
Actual Time 4:51 AM JST 6:25 PM JST
Civil Twilight 4:22 AM JST 6:54 PM JST
Nautical Twilight 3:46 AM JST 7:29 PM JST
Astronomical Twilight 3:09 AM JST 8:06 PM JST
Moon 1:39 AM JST 4:09 PM JST
Length of Visible Light 14h 31m
Length of Day
13h 33m
Tomorrow will be 2m 31s shorter.
Waning Crescent, 8% of the Moon is Illuminated
Today
Waning Crescent
Aug 25
New
Sep 2
First Quarter
Sep 8
Full
Sep 15
Last Quarter

Yesterday's Extremes

Country Highs Country Lows

Community

WunderPhotos

Upload Photos

1,746,155 photos uploaded!

WunderBlogs® & News

By Dr. Jeff Masters
Director of Meteorology, Weather Underground
By Kari Strenfel
Meteorologist, Weather Underground
By Christopher C. Burt
Weather Historian, Weather Underground
August 22, 2014
August 22, 2014
August 22, 2014

Nearby

Snow Depth

Not available.

Earthquake Activity

City Distance Mag. Time & Date
No recent earthquake activity has been reported nearby.
Minimum magnitude displayed is 2.5.

Coastal Water Temperatures

Place Temperature
No Stations Reporting

Nearby Weather Stations